Flight Track Log - Related Links

Times and Time Zones

All times are in EDT time to prevent confusion due to time zone crossing. See the UAL262 flight status page for this flight to view local times or setup timezone preferences in your user account.

Time Position Orientation Groundspeed Altitude Reporting Facility
EDT Latitude Longitude Course Direction KTS MPH feet Rate Location/Type
Sat 02:03:02 AM 47.4286 -122.3108 90° East 166 191 1,300  Level Seattle Center
Sat 02:03:35 AM 47.4028 -122.3092 177° South 173 199 1,900 1,660 Climbing Seattle Center
Sat 02:04:36 AM 47.3394 -122.3072 179° South 228 262 3,900 2,281 Climbing Seattle Center
Sat 02:05:36 AM 47.3133 -122.2106 112° Southeast 280 322 6,500 2,975 Climbing Seattle Center
Sat 02:06:00 AM 47.5500 -121.5854 90° East  Level FlightAware Approximate
Sat 02:06:37 AM 47.3628 -122.1119 53° Northeast 303 349 9,900  Level Seattle Center
Sat 02:07:00 AM 47.5501 -121.3984 90° East  Level FlightAware Approximate
Sat 02:07:37 AM 47.4222 -122.0025 51° Northeast 361 415 11,700  Level Seattle Center
Sat 02:08:00 AM 47.5500 -121.2114 90° East  Level FlightAware Approximate
Sat 02:08:38 AM 47.4947 -121.8669 52° Northeast 426 490 13,700  Level Seattle Center
Sat 02:09:38 AM 47.5622 -121.6964 60° Northeast 460 529 16,700 2,500 Climbing Seattle Center
Sat 02:10:38 AM 47.5583 -121.5342 92° East 465 535 18,700 2,231 Climbing Seattle Center
Sat 02:11:39 AM 47.5567 -121.3375 91° East 482 555 21,200 2,479 Climbing Seattle Center
Sat 02:12:39 AM 47.5528 -121.1381 92° East 489 563 23,700 2,430 Climbing Seattle Center
Sat 02:13:40 AM 47.5486 -120.8900 91° East 505 581 26,100 1,636 Climbing Seattle Center
Sat 02:14:40 AM 47.5456 -120.7128 91° East 503 579 27,000 843 Climbing Seattle Center
Sat 02:15:41 AM 47.5603 -120.5058 84° East 506 582 27,800 600 Climbing Seattle Center
Sat 02:17:30 AM 47.5842 -120.1311 84° East 509 586 28,700 1,385 Climbing Salt Lake Center
Sat 02:18:30 AM 47.5650 -119.9322 98° East 492 566 31,700 2,033 Climbing Salt Lake Center
Sat 02:19:31 AM 47.5503 -119.7461 97° East 469 540 32,800 645 Climbing Salt Lake Center
Sat 02:20:31 AM 47.5481 -119.5592 91° East 461 531 33,000 99 Climbing Salt Lake Center
Sat 02:21:32 AM 47.5633 -119.3592 83° East 485 558 33,000  Level Salt Lake Center
Sat 02:22:32 AM 47.5761 -119.1533 85° East 500 575 33,000  Level Salt Lake Center
Sat 02:23:44 AM 47.5925 -118.8992 84° East 519 597 33,000  Level Seattle Center
Sat 02:24:45 AM 47.6067 -118.6444 85° East 518 596 33,000  Level Seattle Center
Sat 02:25:45 AM 47.6186 -118.4317 85° East 518 596 33,000  Level Seattle Center
Sat 02:26:45 AM 47.6300 -118.2206 85° East 517 595 33,000 -50 Level Seattle Center
Sat 02:27:46 AM 47.6417 -118.0094 85° East 515 593 32,900  Descending Seattle Center
Sat 02:28:46 AM 47.6522 -117.7981 86° East 516 594 33,000  Climbing Seattle Center
Sat 02:29:46 AM 47.6631 -117.5847 86° East 518 596 32,900  Descending Seattle Center
Sat 02:30:47 AM 47.6739 -117.3719 86° East 516 594 33,000 50 Climbing Seattle Center
Sat 02:31:47 AM 47.6844 -117.1556 86° East 517 595 33,000  Level Seattle Center
Sat 02:32:48 AM 47.6933 -116.9758 86° East 524 603 33,000  Level Seattle Center
Sat 02:33:48 AM 47.7000 -116.7597 87° East 520 598 33,000  Level Seattle Center
Sat 02:34:48 AM 47.7081 -116.5464 87° East 517 595 33,000  Level Seattle Center
Sat 02:35:49 AM 47.7158 -116.3331 87° East 517 595 33,000 -50 Level Seattle Center
Sat 02:36:49 AM 47.7231 -116.1219 87° East 513 590 32,900 -50 Descending Seattle Center
Sat 02:37:49 AM 47.7308 -115.9097 87° East 514 592 32,900 50 Level Seattle Center
Sat 02:38:50 AM 47.7392 -115.6617 87° East 518 596 33,000  Climbing Seattle Center
Sat 02:39:50 AM 47.7469 -115.4475 87° East 521 600 32,900  Descending Seattle Center
Sat 02:40:50 AM 47.7528 -115.2328 88° East 522 601 33,000 50 Climbing Seattle Center
Sat 02:41:51 AM 47.7578 -115.0172 88° East 524 603 33,000  Level Seattle Center
Sat 02:42:51 AM 47.7619 -114.8022 88° East 525 604 33,000  Level Seattle Center
Sat 02:43:51 AM 47.7667 -114.5900 88° East 522 601 33,000 -50 Level Seattle Center
Sat 02:44:51 AM 47.7703 -114.3789 88° East 521 600 32,900  Descending Seattle Center
Sat 02:45:45 AM 47.7747 -114.1683 88° East 521 600 33,000 98 Climbing Salt Lake Center
Sat 02:45:52 AM 47.7747 -114.1683 88° East 520 598 33,000 -100 Level Seattle Center
Sat 02:46:45 AM 47.7792 -113.9583 88° East 517 595 32,900 -53 Descending Salt Lake Center
Sat 02:47:46 AM 47.7828 -113.7467 88° East 517 595 32,900 49 Level Salt Lake Center
Sat 02:48:47 AM 47.7858 -113.5342 89° East 518 596 33,000 50 Climbing Salt Lake Center
Sat 02:49:47 AM 47.7878 -113.3214 89° East 519 597 33,000  Level Salt Lake Center
Sat 02:50:47 AM 47.7903 -113.1089 89° East 517 595 33,000  Level Salt Lake Center
Sat 02:51:48 AM 47.7917 -112.8972 89° East 516 594 33,000  Level Salt Lake Center
Sat 02:52:48 AM 47.7925 -112.6856 90° East 514 592 33,000  Level Salt Lake Center
Sat 02:53:49 AM 47.7931 -112.4847 90° East 509 586 33,000 99 Level Salt Lake Center
Sat 02:54:49 AM 47.7939 -112.2778 90° East 503 579 33,200 397 Climbing Salt Lake Center
Sat 02:55:50 AM 47.7936 -112.0714 90° East 502 578 33,800 645 Climbing Salt Lake Center
Sat 02:56:50 AM 47.7939 -111.8631 90° East 503 579 34,500 595 Climbing Salt Lake Center
Sat 02:57:51 AM 47.7933 -111.6569 90° East 500 575 35,000 248 Climbing Salt Lake Center
Sat 02:58:51 AM 47.7936 -111.4492 90° East 498 573 35,000 -50 Level Salt Lake Center
Sat 02:59:52 AM 47.7931 -111.2358 90° East 501 577 34,900  Descending Salt Lake Center
Sat 03:00:52 AM 47.7897 -111.0214 91° East 509 586 35,000 50 Climbing Salt Lake Center
Sat 03:01:53 AM 47.7875 -110.8100 91° East 508 585 35,000  Level Salt Lake Center
Sat 03:02:53 AM 47.7853 -110.5978 91° East 512 589 35,000  Level Salt Lake Center
Sat 03:03:54 AM 47.7828 -110.3889 91° East 509 586 35,000 -50 Level Salt Lake Center
Sat 03:04:54 AM 47.7797 -110.1808 91° East 505 581 34,900  Descending Salt Lake Center
Sat 03:05:55 AM 47.7772 -109.9714 91° East 507 583 35,000 50 Climbing Salt Lake Center
Sat 03:06:55 AM 47.7711 -109.7653 92° East 503 579 35,000 -50 Level Salt Lake Center
Sat 03:07:56 AM 47.7681 -109.5592 91° East 500 575 34,900 -50 Descending Salt Lake Center
Sat 03:08:56 AM 47.7636 -109.3536 92° East 500 575 34,900  Level Salt Lake Center
Sat 03:09:57 AM 47.7592 -109.1486 92° East 499 574 34,900 50 Level Salt Lake Center
Sat 03:10:57 AM 47.7533 -108.9417 92° East 500 575 35,000 50 Climbing Salt Lake Center
Sat 03:11:58 AM 47.7450 -108.6928 93° East 502 578 35,000 -50 Level Salt Lake Center
Sat 03:12:58 AM 47.7392 -108.4864 92° East 503 579 34,900  Descending Salt Lake Center
Sat 03:13:59 AM 47.7336 -108.2808 92° East 501 577 35,000  Climbing Salt Lake Center
Sat 03:14:59 AM 47.7258 -108.0750 93° East 501 577 34,900  Descending Salt Lake Center
Sat 03:16:00 AM 47.7189 -107.8667 93° East 503 579 35,000 50 Climbing Salt Lake Center
Sat 03:17:00 AM 47.7106 -107.6597 93° East 504 580 35,000  Level Salt Lake Center
Sat 03:18:01 AM 47.7033 -107.4514 93° East 506 582 35,000 -50 Level Salt Lake Center
Sat 03:19:01 AM 47.6889 -107.2425 96° East 507 583 34,900  Descending Salt Lake Center
Sat 03:20:02 AM 47.6797 -107.0344 94° East 507 583 35,000 50 Climbing Salt Lake Center
Sat 03:21:02 AM 47.6697 -106.8272 94° East 507 583 35,000  Level Salt Lake Center
Sat 03:22:03 AM 47.6611 -106.6203 93° East 505 581 35,000 -50 Level Salt Lake Center
Sat 03:23:03 AM 47.6514 -106.4147 94° East 504 580 34,900  Descending Salt Lake Center
Sat 03:24:04 AM 47.6417 -106.2097 94° East 502 578 35,000 44 Climbing Salt Lake Center
Sat 03:25:18 AM 47.6286 -105.9631 94° East 502 578 35,000  Level Salt Lake Center
Sat 03:26:19 AM 47.6158 -105.7583 95° East 501 577 35,000  Level Salt Lake Center
Sat 03:27:19 AM 47.6081 -105.5492 93° East 499 574 35,000 -50 Level Salt Lake Center
Sat 03:28:19 AM 47.5958 -105.3525 95° East 496 571 34,900 -50 Descending Salt Lake Center
Sat 03:29:20 AM 47.5836 -105.1531 95° East 491 565 34,900 50 Level Salt Lake Center
Sat 03:30:20 AM 47.5692 -104.9497 96° East 494 568 35,000  Climbing Salt Lake Center
Sat 03:31:21 AM 47.5567 -104.7469 95° East 496 571 34,900  Descending Salt Lake Center
Sat 03:32:21 AM 47.5444 -104.5428 95° East 498 573 35,000 50 Climbing Salt Lake Center
Sat 03:33:22 AM 47.5278 -104.2986 96° East 499 574 35,000  Level Salt Lake Center
Sat 03:34:22 AM 47.5136 -104.0969 96° East 500 575 35,000  Level Salt Lake Center
Sat 03:35:23 AM 47.4989 -103.8983 96° East 498 573 35,000 -50 Level Salt Lake Center
Sat 03:36:23 AM 47.4839 -103.6992 96° East 498 573 34,900 -50 Descending Salt Lake Center
Sat 03:37:24 AM 47.4703 -103.4994 96° East 499 574 34,900 50 Level Salt Lake Center
Sat 03:38:24 AM 47.4564 -103.3003 96° East 496 571 35,000 50 Climbing Salt Lake Center
Sat 03:39:24 AM 47.4408 -103.1000 96° East 494 568 35,000  Level Salt Lake Center
Sat 03:40:25 AM 47.4258 -102.9011 96° East 493 567 35,000  Level Salt Lake Center
Sat 03:41:25 AM 47.4106 -102.7031 96° East 491 565 35,000 -50 Level Salt Lake Center
Sat 03:42:26 AM 47.3947 -102.5061 97° East 488 562 34,900 -50 Descending Salt Lake Center
Sat 03:43:26 AM 47.3781 -102.3100 97° East 486 559 34,900  Level Salt Lake Center
Sat 03:44:27 AM 47.3600 -102.1119 98° East 487 560 34,900 53 Level Salt Lake Center
Sat 03:45:19 AM 47.3428 -101.9158 97° East 489 563 35,000  Climbing Minneapolis Center
Sat 03:46:20 AM 47.3258 -101.7181 97° East 489 563 34,900 -50 Descending Minneapolis Center
Sat 03:47:20 AM 47.3103 -101.5189 96° East 490 564 34,900 50 Level Minneapolis Center
Sat 03:48:20 AM 47.2936 -101.3219 97° East 487 560 35,000 50 Climbing Minneapolis Center
Sat 03:49:21 AM 47.2733 -101.1247 99° East 488 562 35,000  Level Minneapolis Center
Sat 03:50:21 AM 47.2492 -100.9197 100° East 490 564 35,000 -50 Level Minneapolis Center
Sat 03:51:21 AM 47.2292 -100.7225 98° East 491 565 34,900 -50 Descending Minneapolis Center
Sat 03:52:22 AM 47.2106 -100.5269 98° East 487 560 34,900  Level Minneapolis Center
Sat 03:53:22 AM 47.1886 -100.3314 99° East 487 560 34,900 50 Level Minneapolis Center
Sat 03:54:22 AM 47.1683 -100.1353 99° East 487 560 35,000 50 Climbing Minneapolis Center
Sat 03:55:23 AM 47.1478 -99.9397 99° East 487 560 35,000  Level Minneapolis Center
Sat 03:56:23 AM 47.1269 -99.7458 99° East 485 558 35,000  Level Minneapolis Center
Sat 03:57:24 AM 47.1047 -99.5514 99° East 485 558 35,000 -50 Level Minneapolis Center
Sat 03:58:24 AM 47.0833 -99.3581 99° East 484 557 34,900  Descending Minneapolis Center
Sat 03:59:24 AM 47.0611 -99.1642 99° East 484 557 35,000 50 Climbing Minneapolis Center
Sat 04:00:25 AM 47.0383 -98.9717 100° East 484 557 35,000 -50 Level Minneapolis Center
Sat 04:01:25 AM 47.0167 -98.7800 99° East 481 554 34,900  Descending Minneapolis Center
Sat 04:02:25 AM 46.9933 -98.5872 100° East 483 556 35,000 50 Climbing Minneapolis Center
Sat 04:03:26 AM 46.9700 -98.3961 100° East 482 555 35,000 -50 Level Minneapolis Center
Sat 04:04:26 AM 46.9469 -98.2047 100° East 482 555 34,900  Descending Minneapolis Center
Sat 04:05:27 AM 46.9231 -98.0136 100° East 482 555 35,000 50 Climbing Minneapolis Center
Sat 04:06:27 AM 46.8994 -97.8233 100° East 481 554 35,000 -50 Level Minneapolis Center
Sat 04:07:27 AM 46.8697 -97.5956 101° East 479 551 34,900 -50 Descending Minneapolis Center
Sat 04:08:28 AM 46.8456 -97.4058 100° East 479 551 34,900 50 Level Minneapolis Center
Sat 04:09:28 AM 46.8203 -97.2139 101° East 483 556 35,000 50 Climbing Minneapolis Center
Sat 04:10:28 AM 46.7947 -97.0236 101° East 481 554 35,000 -50 Level Minneapolis Center
Sat 04:11:29 AM 46.7692 -96.8344 101° East 479 551 34,900 -50 Descending Minneapolis Center
Sat 04:12:29 AM 46.7425 -96.6464 102° East 478 550 34,900 50 Level Minneapolis Center
Sat 04:13:30 AM 46.7167 -96.4561 101° East 480 552 35,000 50 Climbing Minneapolis Center
Sat 04:14:30 AM 46.6897 -96.2672 102° East 479 551 35,000  Level Minneapolis Center
Sat 04:15:30 AM 46.6622 -96.0775 102° East 480 552 35,000  Level Minneapolis Center
Sat 04:16:31 AM 46.6350 -95.8886 102° East 480 552 35,000  Level Minneapolis Center
Sat 04:17:31 AM 46.6075 -95.7008 102° East 478 550 35,000  Level Minneapolis Center
Sat 04:18:32 AM 46.5800 -95.5122 102° East 478 550 35,000 -50 Level Minneapolis Center
Sat 04:19:32 AM 46.5556 -95.3372 101° East 476 548 34,900  Descending Minneapolis Center
Sat 04:20:32 AM 46.5272 -95.1486 102° East 479 551 35,000 50 Climbing Minneapolis Center
Sat 04:21:33 AM 46.4981 -94.9625 103° East 477 549 35,000  Level Minneapolis Center
Sat 04:22:33 AM 46.4686 -94.7758 103° East 476 548 35,000 -50 Level Minneapolis Center
Sat 04:23:34 AM 46.4336 -94.5536 103° East 475 547 34,900  Descending Minneapolis Center
Sat 04:24:34 AM 46.4042 -94.3683 103° East 476 548 35,000 50 Climbing Minneapolis Center
Sat 04:25:34 AM 46.3733 -94.1814 103° East 477 549 35,000  Level Minneapolis Center
Sat 04:26:35 AM 46.3406 -93.9958 104° East 478 550 35,000  Level Minneapolis Center
Sat 04:27:35 AM 46.2914 -93.8203 112° Southeast 475 547 35,000 -50 Level Minneapolis Center
Sat 04:28:36 AM 46.2428 -93.6442 112° Southeast 475 547 34,900  Descending Minneapolis Center
Sat 04:29:36 AM 46.1933 -93.4656 112° Southeast 474 545 35,000 50 Climbing Minneapolis Center
Sat 04:30:36 AM 46.1433 -93.2864 112° Southeast 478 550 35,000  Level Minneapolis Center
Sat 04:31:37 AM 46.0908 -93.1069 113° Southeast 483 556 35,000  Level Minneapolis Center
Sat 04:32:37 AM 46.0322 -92.9331 116° Southeast 485 558 35,000  Level Minneapolis Center
Sat 04:33:38 AM 45.9744 -92.7603 116° Southeast 482 555 35,000  Level Minneapolis Center
Sat 04:34:38 AM 45.9169 -92.5925 116° Southeast 475 547 35,000  Level Minneapolis Center
Sat 04:35:38 AM 45.8569 -92.4183 116° Southeast 485 558 35,000  Level Minneapolis Center
Sat 04:36:39 AM 45.7983 -92.2422 115° Southeast 490 564 35,000  Level Minneapolis Center
Sat 04:37:39 AM 45.7378 -92.0681 116° Southeast 491 565 35,000  Level Minneapolis Center
Sat 04:38:40 AM 45.6800 -91.8975 116° Southeast 484 557 35,000  Level Minneapolis Center
Sat 04:39:40 AM 45.6225 -91.7272 116° Southeast 478 550 35,000  Level Minneapolis Center
Sat 04:40:41 AM 45.5617 -91.5564 117° Southeast 480 552 35,000  Level Minneapolis Center
Sat 04:41:41 AM 45.5003 -91.3842 117° Southeast 483 556 35,000  Level Minneapolis Center
Sat 04:42:41 AM 45.4394 -91.2164 117° Southeast 482 555 35,000  Level Minneapolis Center
Sat 04:43:42 AM 45.3808 -91.0500 117° Southeast 478 550 35,000  Level Minneapolis Center
Sat 04:44:42 AM 45.3211 -90.8836 117° Southeast 476 548 35,000  Level Minneapolis Center
Sat 04:45:43 AM 45.2619 -90.7169 117° Southeast 475 547 35,000  Level Minneapolis Center
Sat 04:46:43 AM 45.2008 -90.5517 118° Southeast 475 547 35,000  Level Minneapolis Center
Sat 04:47:44 AM 45.1419 -90.3869 117° Southeast 473 544 35,000  Level Minneapolis Center
Sat 04:48:44 AM 45.0811 -90.2225 118° Southeast 473 544 35,000  Level Minneapolis Center
Sat 04:49:44 AM 45.0211 -90.0592 117° Southeast 472 543 35,000  Level Minneapolis Center
Sat 04:50:45 AM 44.9528 -89.9036 122° Southeast 469 540 35,000  Level Minneapolis Center
Sat 04:51:45 AM 44.8647 -89.7233 125° Southeast 473 544 35,000  Level Minneapolis Center
Sat 04:52:46 AM 44.7906 -89.5731 125° Southeast 468 539 35,000  Level Minneapolis Center
Sat 04:53:46 AM 44.7161 -89.4225 125° Southeast 468 539 35,000  Level Minneapolis Center
Sat 04:54:47 AM 44.6428 -89.2714 124° Southeast 468 539 35,000  Level Minneapolis Center
Sat 04:55:47 AM 44.5689 -89.1217 125° Southeast 467 537 35,000  Level Minneapolis Center
Sat 04:56:48 AM 44.4939 -88.9742 125° Southeast 463 533 35,000  Level Minneapolis Center
Sat 04:57:48 AM 44.4206 -88.8264 125° Southeast 462 532 35,000  Level Minneapolis Center
Sat 04:58:49 AM 44.3456 -88.6792 125° Southeast 463 533 35,000  Level Minneapolis Center
Sat 04:59:49 AM 44.2722 -88.5314 125° Southeast 462 532 35,000  Level Minneapolis Center
Sat 05:00:49 AM 44.1978 -88.3844 125° Southeast 463 533 35,000  Level Minneapolis Center
Sat 05:01:50 AM 44.1222 -88.2378 126° Southeast 463 533 35,000  Level Minneapolis Center
Sat 05:02:50 AM 44.0478 -88.0917 125° Southeast 463 533 35,000  Level Minneapolis Center
Sat 05:03:51 AM 43.9758 -87.9453 124° Southeast 457 526 35,000  Level Minneapolis Center
Sat 05:04:51 AM 43.9086 -87.7947 122° Southeast 456 525 35,000  Level Minneapolis Center
Sat 05:05:52 AM 43.8417 -87.6472 122° Southeast 452 520 35,000  Level Minneapolis Center
Sat 05:06:52 AM 43.7739 -87.4992 122° Southeast 452 520 35,000  Level Minneapolis Center
Sat 05:07:53 AM 43.7069 -87.3514 122° Southeast 451 519 35,000  Level Minneapolis Center
Sat 05:08:53 AM 43.6497 -87.2250 122° Southeast 457 526 35,000  Level Minneapolis Center
Sat 05:09:54 AM 43.5811 -87.0775 123° Southeast 457 526 35,000  Level Minneapolis Center
Sat 05:10:54 AM 43.5142 -86.9306 122° Southeast 457 526 35,000  Level Minneapolis Center
Sat 05:11:54 AM 43.4444 -86.7825 123° Southeast 459 528 35,000  Level Minneapolis Center
Sat 05:12:55 AM 43.3619 -86.6044 122° Southeast 461 531 35,000  Level Minneapolis Center
Sat 05:14:07 AM 43.2792 -86.4294 123° Southeast 458 527 35,000  Level Minneapolis Center
Sat 05:15:08 AM 43.2100 -86.2825 123° Southeast 458 527 35,000  Level Minneapolis Center
Sat 05:16:22 AM 43.1256 -86.1036 123° Southeast 465 535 35,000  Level Chicago Center
Sat 05:17:22 AM 43.0511 -85.9569 125° Southeast 464 534 35,000  Level Chicago Center
Sat 05:18:22 AM 42.9836 -85.8272 125° Southeast 473 544 35,000  Level Chicago Center
Sat 05:19:23 AM 42.9086 -85.6814 125° Southeast 473 544 35,000  Level Chicago Center
Sat 05:20:23 AM 42.8342 -85.5389 125° Southeast 465 535 35,000  Level Chicago Center
Sat 05:21:24 AM 42.7581 -85.3944 126° Southeast 469 540 35,000  Level Chicago Center
Sat 05:22:24 AM 42.6828 -85.2503 125° Southeast 468 539 35,000  Level Chicago Center
Sat 05:23:25 AM 42.5925 -85.0783 125° Southeast 468 539 35,000  Level Chicago Center
Sat 05:24:25 AM 42.5158 -84.9342 126° Southeast 470 541 35,000  Level Chicago Center
Sat 05:25:25 AM 42.4386 -84.7894 126° Southeast 474 545 35,000  Level Chicago Center
Sat 05:26:26 AM 42.3603 -84.6475 127° Southeast 471 542 35,000  Level Chicago Center
Sat 05:27:26 AM 42.2828 -84.5031 126° Southeast 474 545 35,000  Level Chicago Center
Sat 05:28:27 AM 42.2044 -84.3597 126° Southeast 474 545 35,000  Level Chicago Center
Sat 05:29:27 AM 42.1261 -84.2167 126° Southeast 475 547 35,000  Level Chicago Center
Sat 05:30:28 AM 42.0483 -84.0747 126° Southeast 473 544 35,000  Level Chicago Center
Sat 05:31:28 AM 41.9708 -83.9333 126° Southeast 472 543 35,000  Level Chicago Center
Sat 05:32:29 AM 41.8919 -83.7958 128° Southeast 477 549 35,000  Level Chicago Center
Sat 05:33:29 AM 41.8122 -83.6536 127° Southeast 477 549 35,000  Level Chicago Center
Sat 05:34:31 AM 41.7186 -83.4958 128° Southeast 475 547 35,000  Level Cleveland Center
Sat 05:35:31 AM 41.6389 -83.3533 127° Southeast 475 547 35,000  Level Cleveland Center
Sat 05:36:31 AM 41.5667 -83.2225 126° Southeast 483 556 35,000  Level Cleveland Center
Sat 05:37:31 AM 41.4886 -83.0808 126° Southeast 483 556 35,000  Level Cleveland Center
Sat 05:38:31 AM 41.3983 -82.9222 127° Southeast 483 556 35,000  Level Cleveland Center
Sat 05:39:31 AM 41.3175 -82.7867 128° Southeast 489 563 35,000  Level Cleveland Center
Sat 05:40:31 AM 41.2347 -82.6403 127° Southeast 483 556 35,000  Level Cleveland Center
Sat 05:41:31 AM 41.1517 -82.4969 128° Southeast 483 556 35,000  Level Cleveland Center
Sat 05:42:31 AM 41.0706 -82.3594 128° Southeast 477 549 35,000  Level Cleveland Center
Sat 05:43:31 AM 40.9894 -82.2169 127° Southeast 483 556 35,000  Level Cleveland Center
Sat 05:44:31 AM 40.9058 -82.0775 128° Southeast 483 556 35,000  Level Cleveland Center
Sat 05:45:31 AM 40.8219 -81.9358 128° Southeast 483 556 35,000  Level Cleveland Center
Sat 05:46:31 AM 40.7403 -81.7972 128° Southeast 483 556 35,000  Level Cleveland Center
Sat 05:47:31 AM 40.6583 -81.6561 127° Southeast 483 556 35,000  Level Cleveland Center
Sat 05:48:31 AM 40.5742 -81.5153 128° Southeast 488 562 35,000  Level Cleveland Center
Sat 05:49:31 AM 40.4958 -81.3775 127° Southeast 488 562 35,000  Level Cleveland Center
Sat 05:50:31 AM 40.4281 -81.2267 121° Southeast 483 556 35,000  Level Cleveland Center
Sat 05:51:31 AM 40.3664 -81.0681 117° Southeast 483 556 35,000  Level Cleveland Center
Sat 05:52:31 AM 40.3064 -80.9069 116° Southeast 483 556 35,000  Level Cleveland Center
Sat 05:53:31 AM 40.2442 -80.7436 116° Southeast 488 562 35,000  Level Cleveland Center
Sat 05:54:31 AM 40.1819 -80.5858 117° Southeast 488 562 35,000 -300 Level Cleveland Center
Sat 05:55:31 AM 40.1192 -80.4256 117° Southeast 488 562 34,400 -800 Descending Cleveland Center
Sat 05:56:31 AM 40.0564 -80.2683 118° Southeast 488 562 33,400 -457 Descending Cleveland Center
Sat 05:58:35 AM 39.9328 -79.9533 117° Southeast 487 560 33,000 -130 Descending Washington Center
Sat 05:59:35 AM 39.8697 -79.7928 117° Southeast 493 567 33,000 -250 Level Washington Center
Sat 06:00:35 AM 39.8083 -79.6353 117° Southeast 493 567 32,500 -700 Descending Washington Center
Sat 06:01:35 AM 39.7447 -79.4778 118° Southeast 493 567 31,600 -1,785 Descending Washington Center
Sat 06:02:36 AM 39.6808 -79.3233 118° Southeast 493 567 28,900 -2,803 Descending Washington Center
Sat 06:03:37 AM 39.6169 -79.1636 117° Southeast 493 567 25,900 -3,124 Descending Washington Center
Sat 06:04:37 AM 39.5450 -78.9906 118° Southeast 500 575 22,600 -3,076 Descending Washington Center
Sat 06:05:36 AM 39.4825 -78.8369 118° Southeast 490 564 19,800 -2,672 Descending Washington Center
Sat 06:06:36 AM 39.4236 -78.6972 119° Southeast 467 537 17,300 -2,459 Descending Washington Center
Sat 06:07:38 AM 39.3686 -78.5633 118° Southeast 438 504 14,800 -2,450 Descending Washington Center
Sat 06:08:36 AM 39.3175 -78.4381 118° Southeast 416 479 12,400 -1,932 Descending Washington Center
Sat 06:09:36 AM 39.2639 -78.3233 121° Southeast 391 450 11,000 -793 Descending Washington Center
Sat 06:10:37 AM 39.2033 -78.2378 132° Southeast 334 384 10,800 -850 Descending Washington Center
Sat 06:11:36 AM 39.1314 -78.1897 153° Southeast 302 348 9,300 -1,210 Descending Washington Center
Sat 06:12:36 AM 39.0617 -78.1392 151° Southeast 297 342 8,400 -950 Descending Washington Center
Sat 06:13:36 AM 38.9981 -78.0808 145° Southeast 286 329 7,400 -694 Descending Washington Center
Sat 06:14:37 AM 38.9389 -78.0203 141° Southeast 281 323 7,000 -298 Descending Washington Center
Sat 06:15:37 AM 38.8797 -77.9597 141° Southeast 276 318 6,800 -559 Descending Washington Center
Sat 06:16:35 AM 38.8203 -77.9017 143° Southeast 276 318 5,900 -900 Descending Washington Center
Sat 06:17:37 AM 38.7631 -77.8414 141° Southeast 271 312 5,000 -509 Descending Washington Center
Sat 06:19:20 AM 38.7500 -77.7000 97° East 264 304 4,500 -497 Descending Potomac TRACON
Sat 06:20:26 AM 38.7833 -77.6167 63° Northeast 221 254 3,600 -950 Descending Potomac TRACON
Sat 06:21:20 AM 38.8000 -77.5500 72° East 213 245 2,600 -737 Descending Potomac TRACON
Sat 06:22:20 AM 38.8333 -77.4833 57° Northeast 197 227 2,200 -450 Descending Potomac TRACON
Sat 06:23:20 AM 38.8667 -77.4667 21° North 149 171 1,700 -650 Descending Potomac TRACON
Sat 06:24:20 AM 38.9167 -77.4667 360° North 138 159 900 -800 Descending Potomac TRACON

Login

Don't have an account? Register now (free) for customized features, flight alerts, and more!